sensor_id;sensor_type;location;lat;lon;timestamp;temperature;humidity
18434;DHT22;9344;52.294;13.626;2022-08-11T00:01:27;22.50;1.00
18434;DHT22;9344;52.294;13.626;2022-08-11T00:03:56;22.50;1.00
18434;DHT22;9344;52.294;13.626;2022-08-11T00:06:25;22.50;1.00
18434;DHT22;9344;52.294;13.626;2022-08-11T00:08:53;22.50;1.00
18434;DHT22;9344;52.294;13.626;2022-08-11T00:11:21;22.50;1.00
18434;DHT22;9344;52.294;13.626;2022-08-11T00:13:57;22.40;1.00
18434;DHT22;9344;52.294;13.626;2022-08-11T00:16:25;22.30;1.00
18434;DHT22;9344;52.294;13.626;2022-08-11T00:18:55;22.30;1.00
18434;DHT22;9344;52.294;13.626;2022-08-11T00:21:25;22.30;1.00
18434;DHT22;9344;52.294;13.626;2022-08-11T00:23:54;22.20;1.00
18434;DHT22;9344;52.294;13.626;2022-08-11T00:26:22;22.10;1.00
18434;DHT22;9344;52.294;13.626;2022-08-11T00:28:49;22.10;1.00
18434;DHT22;9344;52.294;13.626;2022-08-11T00:31:23;22.10;1.00
18434;DHT22;9344;52.294;13.626;2022-08-11T00:33:51;22.10;1.00
18434;DHT22;9344;52.294;13.626;2022-08-11T00:36:21;22.00;1.00
18434;DHT22;9344;52.294;13.626;2022-08-11T00:38:50;22.00;1.00
18434;DHT22;9344;52.294;13.626;2022-08-11T00:41:31;22.00;1.00
18434;DHT22;9344;52.294;13.626;2022-08-11T00:44:11;21.90;1.00
18434;DHT22;9344;52.294;13.626;2022-08-11T00:46:48;21.90;1.00
18434;DHT22;9344;52.294;13.626;2022-08-11T00:49:34;21.90;1.00
18434;DHT22;9344;52.294;13.626;2022-08-11T00:52:12;21.80;1.00
18434;DHT22;9344;52.294;13.626;2022-08-11T00:55:10;21.80;1.00
18434;DHT22;9344;52.294;13.626;2022-08-11T01:01:08;21.60;1.00
18434;DHT22;9344;52.294;13.626;2022-08-11T01:03:57;21.60;1.00
18434;DHT22;9344;52.294;13.626;2022-08-11T01:06:48;21.60;1.00
18434;DHT22;9344;52.294;13.626;2022-08-11T01:09:43;21.50;1.00
18434;DHT22;9344;52.294;13.626;2022-08-11T01:12:24;21.50;1.00
18434;DHT22;9344;52.294;13.626;2022-08-11T01:18:24;21.40;1.00
18434;DHT22;9344;52.294;13.626;2022-08-11T01:21:14;21.40;1.00
18434;DHT22;9344;52.294;13.626;2022-08-11T01:30:47;21.30;1.00
18434;DHT22;9344;52.294;13.626;2022-08-11T01:34:00;21.30;1.00
18434;DHT22;9344;52.294;13.626;2022-08-11T01:36:59;21.20;1.00
18434;DHT22;9344;52.294;13.626;2022-08-11T01:43:00;21.20;1.00
18434;DHT22;9344;52.294;13.626;2022-08-11T01:45:51;21.20;1.00
18434;DHT22;9344;52.294;13.626;2022-08-11T01:48:27;21.20;1.00
18434;DHT22;9344;52.294;13.626;2022-08-11T01:51:04;21.10;1.00
18434;DHT22;9344;52.294;13.626;2022-08-11T01:53:47;21.10;1.00
18434;DHT22;9344;52.294;13.626;2022-08-11T01:56:31;21.00;1.00
18434;DHT22;9344;52.294;13.626;2022-08-11T01:59:08;21.00;1.00
18434;DHT22;9344;52.294;13.626;2022-08-11T02:01:44;20.90;1.00
18434;DHT22;9344;52.294;13.626;2022-08-11T02:04:18;20.90;1.00
18434;DHT22;9344;52.294;13.626;2022-08-11T02:06:52;20.80;1.00
18434;DHT22;9344;52.294;13.626;2022-08-11T02:09:31;20.80;1.00
18434;DHT22;9344;52.294;13.626;2022-08-11T02:12:09;20.70;1.00
18434;DHT22;9344;52.294;13.626;2022-08-11T02:14:42;20.70;1.00
18434;DHT22;9344;52.294;13.626;2022-08-11T02:17:18;20.70;1.00
18434;DHT22;9344;52.294;13.626;2022-08-11T02:19:53;20.70;1.00
18434;DHT22;9344;52.294;13.626;2022-08-11T02:22:45;20.70;1.00
18434;DHT22;9344;52.294;13.626;2022-08-11T02:25:37;20.70;1.00
18434;DHT22;9344;52.294;13.626;2022-08-11T02:28:11;20.60;1.00
18434;DHT22;9344;52.294;13.626;2022-08-11T02:30:52;20.60;1.00
18434;DHT22;9344;52.294;13.626;2022-08-11T02:33:59;20.60;1.00
18434;DHT22;9344;52.294;13.626;2022-08-11T02:36:37;20.50;1.00
18434;DHT22;9344;52.294;13.626;2022-08-11T02:39:09;20.50;1.00
18434;DHT22;9344;52.294;13.626;2022-08-11T02:41:43;20.50;1.00
18434;DHT22;9344;52.294;13.626;2022-08-11T02:44:36;20.40;1.00
18434;DHT22;9344;52.294;13.626;2022-08-11T02:47:10;20.40;1.00
18434;DHT22;9344;52.294;13.626;2022-08-11T02:49:46;20.30;1.00
18434;DHT22;9344;52.294;13.626;2022-08-11T02:52:29;20.30;1.00
18434;DHT22;9344;52.294;13.626;2022-08-11T02:55:17;20.20;1.00
18434;DHT22;9344;52.294;13.626;2022-08-11T02:57:52;20.20;1.00
18434;DHT22;9344;52.294;13.626;2022-08-11T03:00:20;20.20;1.00
18434;DHT22;9344;52.294;13.626;2022-08-11T03:03:16;20.10;1.00
18434;DHT22;9344;52.294;13.626;2022-08-11T03:06:03;20.10;1.00
18434;DHT22;9344;52.294;13.626;2022-08-11T03:08:48;20.10;1.00
18434;DHT22;9344;52.294;13.626;2022-08-11T03:11:21;20.10;1.00
18434;DHT22;9344;52.294;13.626;2022-08-11T03:14:16;20.10;1.00
18434;DHT22;9344;52.294;13.626;2022-08-11T03:17:22;20.10;1.00
18434;DHT22;9344;52.294;13.626;2022-08-11T03:20:02;20.10;1.00
18434;DHT22;9344;52.294;13.626;2022-08-11T03:22:35;20.00;1.00
18434;DHT22;9344;52.294;13.626;2022-08-11T03:25:09;20.00;1.00
18434;DHT22;9344;52.294;13.626;2022-08-11T03:27:47;20.00;1.00
18434;DHT22;9344;52.294;13.626;2022-08-11T03:30:20;19.90;1.00
18434;DHT22;9344;52.294;13.626;2022-08-11T03:33:04;19.90;1.00
18434;DHT22;9344;52.294;13.626;2022-08-11T03:36:09;19.90;1.00
18434;DHT22;9344;52.294;13.626;2022-08-11T03:38:45;19.80;1.00
18434;DHT22;9344;52.294;13.626;2022-08-11T03:41:25;19.70;1.00
18434;DHT22;9344;52.294;13.626;2022-08-11T03:47:17;19.70;1.00
18434;DHT22;9344;52.294;13.626;2022-08-11T03:50:01;19.60;1.00
18434;DHT22;9344;52.294;13.626;2022-08-11T03:52:40;19.50;1.00
18434;DHT22;9344;52.294;13.626;2022-08-11T03:55:22;19.50;1.00
18434;DHT22;9344;52.294;13.626;2022-08-11T03:58:13;19.40;1.00
18434;DHT22;9344;52.294;13.626;2022-08-11T04:01:06;19.40;1.00
18434;DHT22;9344;52.294;13.626;2022-08-11T04:04:05;19.40;1.00
18434;DHT22;9344;52.294;13.626;2022-08-11T04:06:52;19.30;1.00
18434;DHT22;9344;52.294;13.626;2022-08-11T04:09:54;19.20;1.00
18434;DHT22;9344;52.294;13.626;2022-08-11T04:12:38;19.20;1.00
18434;DHT22;9344;52.294;13.626;2022-08-11T04:15:44;19.20;1.00
18434;DHT22;9344;52.294;13.626;2022-08-11T04:18:58;19.10;1.00
18434;DHT22;9344;52.294;13.626;2022-08-11T04:21:50;19.10;1.00
18434;DHT22;9344;52.294;13.626;2022-08-11T04:24:43;19.10;1.00
18434;DHT22;9344;52.294;13.626;2022-08-11T04:27:30;19.10;1.00
18434;DHT22;9344;52.294;13.626;2022-08-11T04:30:05;19.10;1.00
18434;DHT22;9344;52.294;13.626;2022-08-11T04:35:38;19.20;1.00
18434;DHT22;9344;52.294;13.626;2022-08-11T04:38:33;19.30;1.00
18434;DHT22;9344;52.294;13.626;2022-08-11T04:47:39;19.50;1.00
18434;DHT22;9344;52.294;13.626;2022-08-11T04:50:39;19.50;1.00
18434;DHT22;9344;52.294;13.626;2022-08-11T04:53:39;19.60;1.00
18434;DHT22;9344;52.294;13.626;2022-08-11T04:56:28;19.70;1.00
18434;DHT22;9344;52.294;13.626;2022-08-11T04:59:27;19.80;1.00
18434;DHT22;9344;52.294;13.626;2022-08-11T05:02:47;19.90;1.00
18434;DHT22;9344;52.294;13.626;2022-08-11T05:05:28;20.00;1.00
18434;DHT22;9344;52.294;13.626;2022-08-11T05:14:21;20.20;1.00
18434;DHT22;9344;52.294;13.626;2022-08-11T05:17:10;20.30;1.00
18434;DHT22;9344;52.294;13.626;2022-08-11T05:19:56;20.30;1.00
18434;DHT22;9344;52.294;13.626;2022-08-11T05:22:48;20.40;1.00
18434;DHT22;9344;52.294;13.626;2022-08-11T05:25:34;20.40;1.00
18434;DHT22;9344;52.294;13.626;2022-08-11T05:28:29;20.50;1.00
18434;DHT22;9344;52.294;13.626;2022-08-11T05:31:18;20.60;1.00
18434;DHT22;9344;52.294;13.626;2022-08-11T05:34:09;20.70;1.00
18434;DHT22;9344;52.294;13.626;2022-08-11T05:36:59;20.80;1.00
18434;DHT22;9344;52.294;13.626;2022-08-11T05:39:30;20.90;1.00
18434;DHT22;9344;52.294;13.626;2022-08-11T05:42:16;20.90;1.00
18434;DHT22;9344;52.294;13.626;2022-08-11T05:45:11;21.00;1.00
18434;DHT22;9344;52.294;13.626;2022-08-11T05:47:57;21.10;1.00
18434;DHT22;9344;52.294;13.626;2022-08-11T05:50:43;21.20;1.00
18434;DHT22;9344;52.294;13.626;2022-08-11T05:53:33;21.20;1.00
18434;DHT22;9344;52.294;13.626;2022-08-11T05:56:18;21.40;1.00
18434;DHT22;9344;52.294;13.626;2022-08-11T05:58:48;21.50;1.00
18434;DHT22;9344;52.294;13.626;2022-08-11T06:01:23;21.60;1.00
18434;DHT22;9344;52.294;13.626;2022-08-11T06:03:51;21.70;1.00
18434;DHT22;9344;52.294;13.626;2022-08-11T06:06:37;21.80;1.00
18434;DHT22;9344;52.294;13.626;2022-08-11T06:09:06;21.90;1.00
18434;DHT22;9344;52.294;13.626;2022-08-11T06:11:36;21.80;1.00
18434;DHT22;9344;52.294;13.626;2022-08-11T06:14:05;21.90;1.00
18434;DHT22;9344;52.294;13.626;2022-08-11T06:16:33;21.90;1.00
18434;DHT22;9344;52.294;13.626;2022-08-11T06:19:01;22.00;1.00
18434;DHT22;9344;52.294;13.626;2022-08-11T06:21:31;22.00;1.00
18434;DHT22;9344;52.294;13.626;2022-08-11T06:23:59;22.20;1.00
18434;DHT22;9344;52.294;13.626;2022-08-11T06:26:26;22.20;1.00
18434;DHT22;9344;52.294;13.626;2022-08-11T06:28:57;22.30;1.00
18434;DHT22;9344;52.294;13.626;2022-08-11T06:31:26;22.20;1.00
18434;DHT22;9344;52.294;13.626;2022-08-11T06:33:58;22.40;1.00
18434;DHT22;9344;52.294;13.626;2022-08-11T06:36:37;22.50;1.00
18434;DHT22;9344;52.294;13.626;2022-08-11T06:39:12;22.60;1.00
18434;DHT22;9344;52.294;13.626;2022-08-11T06:41:45;22.80;1.00
18434;DHT22;9344;52.294;13.626;2022-08-11T06:44:23;22.90;1.00
18434;DHT22;9344;52.294;13.626;2022-08-11T06:46:51;23.00;1.00
18434;DHT22;9344;52.294;13.626;2022-08-11T06:49:31;23.10;1.00
18434;DHT22;9344;52.294;13.626;2022-08-11T06:52:16;23.20;1.00
18434;DHT22;9344;52.294;13.626;2022-08-11T06:54:49;23.30;1.00
18434;DHT22;9344;52.294;13.626;2022-08-11T06:57:28;23.40;1.00
18434;DHT22;9344;52.294;13.626;2022-08-11T07:00:10;23.40;1.00
18434;DHT22;9344;52.294;13.626;2022-08-11T07:02:58;23.50;1.00
18434;DHT22;9344;52.294;13.626;2022-08-11T07:05:38;23.60;1.00
18434;DHT22;9344;52.294;13.626;2022-08-11T07:08:40;23.80;1.00
18434;DHT22;9344;52.294;13.626;2022-08-11T07:11:54;23.90;1.00
18434;DHT22;9344;52.294;13.626;2022-08-11T07:14:48;24.00;1.00
18434;DHT22;9344;52.294;13.626;2022-08-11T07:17:38;24.10;1.00
18434;DHT22;9344;52.294;13.626;2022-08-11T07:20:07;24.30;1.00
18434;DHT22;9344;52.294;13.626;2022-08-11T07:22:56;24.40;1.00
18434;DHT22;9344;52.294;13.626;2022-08-11T07:25:43;24.50;1.00
18434;DHT22;9344;52.294;13.626;2022-08-11T07:28:30;24.60;1.00
18434;DHT22;9344;52.294;13.626;2022-08-11T07:31:23;24.70;1.00
18434;DHT22;9344;52.294;13.626;2022-08-11T07:33:56;24.90;1.00
18434;DHT22;9344;52.294;13.626;2022-08-11T07:36:26;25.00;1.00
18434;DHT22;9344;52.294;13.626;2022-08-11T07:38:56;26.60;1.00
18434;DHT22;9344;52.294;13.626;2022-08-11T07:41:23;25.10;1.00
18434;DHT22;9344;52.294;13.626;2022-08-11T07:43:55;25.20;1.00
18434;DHT22;9344;52.294;13.626;2022-08-11T07:46:34;25.40;1.00
18434;DHT22;9344;52.294;13.626;2022-08-11T07:49:18;25.50;1.00
18434;DHT22;9344;52.294;13.626;2022-08-11T07:52:02;25.70;1.00
18434;DHT22;9344;52.294;13.626;2022-08-11T07:54:48;25.80;1.00
18434;DHT22;9344;52.294;13.626;2022-08-11T07:57:16;25.90;1.00
18434;DHT22;9344;52.294;13.626;2022-08-11T08:00:00;26.00;1.00
18434;DHT22;9344;52.294;13.626;2022-08-11T08:02:44;26.10;1.00
18434;DHT22;9344;52.294;13.626;2022-08-11T08:05:30;26.20;1.00
18434;DHT22;9344;52.294;13.626;2022-08-11T08:08:14;26.30;1.00
18434;DHT22;9344;52.294;13.626;2022-08-11T08:11:00;26.40;1.00
18434;DHT22;9344;52.294;13.626;2022-08-11T08:13:45;26.50;1.00
18434;DHT22;9344;52.294;13.626;2022-08-11T08:16:30;26.60;1.00
18434;DHT22;9344;52.294;13.626;2022-08-11T08:19:16;26.70;1.00
18434;DHT22;9344;52.294;13.626;2022-08-11T08:21:44;26.80;1.00
18434;DHT22;9344;52.294;13.626;2022-08-11T08:24:12;26.80;1.00
18434;DHT22;9344;52.294;13.626;2022-08-11T08:26:42;27.00;1.00
18434;DHT22;9344;52.294;13.626;2022-08-11T08:29:24;27.00;1.00
18434;DHT22;9344;52.294;13.626;2022-08-11T08:32:10;27.10;1.00
18434;DHT22;9344;52.294;13.626;2022-08-11T08:34:38;27.30;1.00
18434;DHT22;9344;52.294;13.626;2022-08-11T08:37:05;27.50;1.00
18434;DHT22;9344;52.294;13.626;2022-08-11T08:39:32;27.50;1.00
18434;DHT22;9344;52.294;13.626;2022-08-11T08:42:07;27.60;1.00
18434;DHT22;9344;52.294;13.626;2022-08-11T08:44:39;27.70;1.00
18434;DHT22;9344;52.294;13.626;2022-08-11T08:47:10;27.80;1.00
18434;DHT22;9344;52.294;13.626;2022-08-11T08:49:43;27.90;1.00
18434;DHT22;9344;52.294;13.626;2022-08-11T08:52:14;28.00;1.00
18434;DHT22;9344;52.294;13.626;2022-08-11T08:54:44;28.10;1.00
18434;DHT22;9344;52.294;13.626;2022-08-11T08:57:16;28.20;1.00
18434;DHT22;9344;52.294;13.626;2022-08-11T08:59:46;28.40;1.00
18434;DHT22;9344;52.294;13.626;2022-08-11T09:02:14;28.40;1.00
18434;DHT22;9344;52.294;13.626;2022-08-11T09:04:44;28.40;1.00
18434;DHT22;9344;52.294;13.626;2022-08-11T09:07:12;28.50;1.00
18434;DHT22;9344;52.294;13.626;2022-08-11T09:09:41;28.50;1.00
18434;DHT22;9344;52.294;13.626;2022-08-11T09:12:09;28.50;1.00
18434;DHT22;9344;52.294;13.626;2022-08-11T09:14:39;28.60;1.00
18434;DHT22;9344;52.294;13.626;2022-08-11T09:17:27;28.60;1.00
18434;DHT22;9344;52.294;13.626;2022-08-11T09:20:03;28.70;1.00
18434;DHT22;9344;52.294;13.626;2022-08-11T09:22:32;28.70;1.00
18434;DHT22;9344;52.294;13.626;2022-08-11T09:25:18;28.80;1.00
18434;DHT22;9344;52.294;13.626;2022-08-11T09:28:03;28.90;1.00
18434;DHT22;9344;52.294;13.626;2022-08-11T09:30:33;28.70;1.00
18434;DHT22;9344;52.294;13.626;2022-08-11T09:33:01;28.70;1.00
18434;DHT22;9344;52.294;13.626;2022-08-11T09:35:33;28.90;1.00
18434;DHT22;9344;52.294;13.626;2022-08-11T09:38:01;28.90;1.00
18434;DHT22;9344;52.294;13.626;2022-08-11T09:40:48;28.80;1.00
18434;DHT22;9344;52.294;13.626;2022-08-11T09:43:17;28.60;1.00
18434;DHT22;9344;52.294;13.626;2022-08-11T09:46:04;28.90;1.00
18434;DHT22;9344;52.294;13.626;2022-08-11T09:48:35;29.00;1.00
18434;DHT22;9344;52.294;13.626;2022-08-11T09:51:03;29.10;99.90
18434;DHT22;9344;52.294;13.626;2022-08-11T09:53:35;29.20;99.90
18434;DHT22;9344;52.294;13.626;2022-08-11T09:56:04;29.20;99.90
18434;DHT22;9344;52.294;13.626;2022-08-11T09:58:51;29.20;99.90
18434;DHT22;9344;52.294;13.626;2022-08-11T10:01:21;29.30;99.90
18434;DHT22;9344;52.294;13.626;2022-08-11T10:03:59;29.50;99.90
18434;DHT22;9344;52.294;13.626;2022-08-11T10:06:28;29.70;99.90
18434;DHT22;9344;52.294;13.626;2022-08-11T10:09:17;29.80;99.90
18434;DHT22;9344;52.294;13.626;2022-08-11T10:11:46;29.70;99.90
18434;DHT22;9344;52.294;13.626;2022-08-11T10:14:15;29.60;99.90
18434;DHT22;9344;52.294;13.626;2022-08-11T10:17:07;29.80;99.90
18434;DHT22;9344;52.294;13.626;2022-08-11T10:19:34;29.80;99.90
18434;DHT22;9344;52.294;13.626;2022-08-11T10:22:03;29.60;99.90
18434;DHT22;9344;52.294;13.626;2022-08-11T10:24:49;29.40;99.90
18434;DHT22;9344;52.294;13.626;2022-08-11T10:27:34;29.40;99.90
18434;DHT22;9344;52.294;13.626;2022-08-11T10:30:01;29.50;99.90
18434;DHT22;9344;52.294;13.626;2022-08-11T10:32:49;29.70;99.90
18434;DHT22;9344;52.294;13.626;2022-08-11T10:35:34;29.80;99.90
18434;DHT22;9344;52.294;13.626;2022-08-11T10:38:02;29.90;99.90
18434;DHT22;9344;52.294;13.626;2022-08-11T10:40:29;30.00;99.90
18434;DHT22;9344;52.294;13.626;2022-08-11T10:42:58;30.10;99.90
18434;DHT22;9344;52.294;13.626;2022-08-11T10:45:28;30.20;99.90
18434;DHT22;9344;52.294;13.626;2022-08-11T10:48:14;30.00;99.90
18434;DHT22;9344;52.294;13.626;2022-08-11T10:50:44;29.70;99.90
18434;DHT22;9344;52.294;13.626;2022-08-11T10:53:28;29.50;99.90
18434;DHT22;9344;52.294;13.626;2022-08-11T10:56:13;29.20;99.90
18434;DHT22;9344;52.294;13.626;2022-08-11T10:58:57;29.20;99.90
18434;DHT22;9344;52.294;13.626;2022-08-11T11:01:26;29.20;99.90
18434;DHT22;9344;52.294;13.626;2022-08-11T11:03:57;29.30;99.90
18434;DHT22;9344;52.294;13.626;2022-08-11T11:06:28;29.30;99.90
18434;DHT22;9344;52.294;13.626;2022-08-11T11:09:02;29.50;99.90
18434;DHT22;9344;52.294;13.626;2022-08-11T11:11:32;29.70;99.90
18434;DHT22;9344;52.294;13.626;2022-08-11T11:14:18;29.90;99.90
18434;DHT22;9344;52.294;13.626;2022-08-11T11:17:04;30.10;99.90
18434;DHT22;9344;52.294;13.626;2022-08-11T11:19:54;29.90;99.90
18434;DHT22;9344;52.294;13.626;2022-08-11T11:22:23;30.30;99.90
18434;DHT22;9344;52.294;13.626;2022-08-11T11:25:09;30.40;99.90
18434;DHT22;9344;52.294;13.626;2022-08-11T11:30:44;30.50;99.90
18434;DHT22;9344;52.294;13.626;2022-08-11T11:33:18;30.60;99.90
18434;DHT22;9344;52.294;13.626;2022-08-11T11:35:58;30.70;99.90
18434;DHT22;9344;52.294;13.626;2022-08-11T11:38:27;30.80;99.90
18434;DHT22;9344;52.294;13.626;2022-08-11T11:40:55;30.70;99.90
18434;DHT22;9344;52.294;13.626;2022-08-11T11:43:36;30.10;99.90
18434;DHT22;9344;52.294;13.626;2022-08-11T11:46:04;30.80;99.90
18434;DHT22;9344;52.294;13.626;2022-08-11T11:48:33;30.90;99.90
18434;DHT22;9344;52.294;13.626;2022-08-11T11:51:01;31.10;99.90
18434;DHT22;9344;52.294;13.626;2022-08-11T11:53:28;31.10;99.90
18434;DHT22;9344;52.294;13.626;2022-08-11T11:55:55;31.20;99.90
18434;DHT22;9344;52.294;13.626;2022-08-11T11:58:23;31.30;99.90
18434;DHT22;9344;52.294;13.626;2022-08-11T12:01:07;31.20;99.90
18434;DHT22;9344;52.294;13.626;2022-08-11T12:03:46;31.30;99.90
18434;DHT22;9344;52.294;13.626;2022-08-11T12:06:16;31.40;99.90
18434;DHT22;9344;52.294;13.626;2022-08-11T12:08:48;31.50;99.90
18434;DHT22;9344;52.294;13.626;2022-08-11T12:11:15;31.60;99.90
18434;DHT22;9344;52.294;13.626;2022-08-11T12:14:02;31.60;99.90
18434;DHT22;9344;52.294;13.626;2022-08-11T12:16:30;31.60;99.90
18434;DHT22;9344;52.294;13.626;2022-08-11T12:18:59;31.60;99.90
18434;DHT22;9344;52.294;13.626;2022-08-11T12:21:29;31.80;99.90
18434;DHT22;9344;52.294;13.626;2022-08-11T12:23:58;31.70;99.90
18434;DHT22;9344;52.294;13.626;2022-08-11T12:26:44;31.70;99.90
18434;DHT22;9344;52.294;13.626;2022-08-11T12:29:25;31.70;99.90
18434;DHT22;9344;52.294;13.626;2022-08-11T12:31:53;31.90;99.90
18434;DHT22;9344;52.294;13.626;2022-08-11T12:34:25;31.90;99.90
18434;DHT22;9344;52.294;13.626;2022-08-11T12:36:56;31.90;99.90
18434;DHT22;9344;52.294;13.626;2022-08-11T12:39:25;31.90;99.90
18434;DHT22;9344;52.294;13.626;2022-08-11T12:42:07;32.10;99.90
18434;DHT22;9344;52.294;13.626;2022-08-11T12:44:53;32.00;99.90
18434;DHT22;9344;52.294;13.626;2022-08-11T12:47:38;32.10;99.90
18434;DHT22;9344;52.294;13.626;2022-08-11T12:50:19;32.20;99.90
18434;DHT22;9344;52.294;13.626;2022-08-11T12:53:06;32.10;99.90
18434;DHT22;9344;52.294;13.626;2022-08-11T12:55:36;32.10;99.90
18434;DHT22;9344;52.294;13.626;2022-08-11T12:58:21;32.20;99.90
18434;DHT22;9344;52.294;13.626;2022-08-11T13:00:47;32.40;99.90
18434;DHT22;9344;52.294;13.626;2022-08-11T13:03:33;32.20;99.90
18434;DHT22;9344;52.294;13.626;2022-08-11T13:06:18;32.10;99.90
18434;DHT22;9344;52.294;13.626;2022-08-11T13:08:50;32.20;99.90
18434;DHT22;9344;52.294;13.626;2022-08-11T13:11:18;32.30;99.90
18434;DHT22;9344;52.294;13.626;2022-08-11T13:14:02;32.40;99.90
18434;DHT22;9344;52.294;13.626;2022-08-11T13:16:32;32.50;99.90
18434;DHT22;9344;52.294;13.626;2022-08-11T13:19:20;32.50;99.90
18434;DHT22;9344;52.294;13.626;2022-08-11T13:21:48;32.50;99.90
18434;DHT22;9344;52.294;13.626;2022-08-11T13:24:16;32.60;99.90
18434;DHT22;9344;52.294;13.626;2022-08-11T13:26:44;32.70;99.90
18434;DHT22;9344;52.294;13.626;2022-08-11T13:29:11;32.70;99.90
18434;DHT22;9344;52.294;13.626;2022-08-11T13:31:39;32.70;99.90
18434;DHT22;9344;52.294;13.626;2022-08-11T13:34:08;32.70;99.90
18434;DHT22;9344;52.294;13.626;2022-08-11T13:36:35;32.70;99.90
18434;DHT22;9344;52.294;13.626;2022-08-11T13:39:03;32.80;99.90
18434;DHT22;9344;52.294;13.626;2022-08-11T13:41:31;32.90;99.90
18434;DHT22;9344;52.294;13.626;2022-08-11T13:44:06;32.90;99.90
18434;DHT22;9344;52.294;13.626;2022-08-11T13:46:33;32.90;99.90
18434;DHT22;9344;52.294;13.626;2022-08-11T13:49:00;33.00;99.90
18434;DHT22;9344;52.294;13.626;2022-08-11T13:51:28;33.10;99.90
18434;DHT22;9344;52.294;13.626;2022-08-11T13:53:56;33.10;99.90
18434;DHT22;9344;52.294;13.626;2022-08-11T13:56:23;33.20;99.90
18434;DHT22;9344;52.294;13.626;2022-08-11T13:58:52;33.20;99.90
18434;DHT22;9344;52.294;13.626;2022-08-11T14:01:19;33.20;99.90
18434;DHT22;9344;52.294;13.626;2022-08-11T14:03:46;33.10;99.90
18434;DHT22;9344;52.294;13.626;2022-08-11T14:06:16;33.20;99.90
18434;DHT22;9344;52.294;13.626;2022-08-11T14:08:44;33.30;99.90
18434;DHT22;9344;52.294;13.626;2022-08-11T14:11:12;33.40;99.90
18434;DHT22;9344;52.294;13.626;2022-08-11T14:14:02;33.80;99.90
18434;DHT22;9344;52.294;13.626;2022-08-11T14:16:32;33.60;99.90
18434;DHT22;9344;52.294;13.626;2022-08-11T14:19:03;33.40;99.90
18434;DHT22;9344;52.294;13.626;2022-08-11T14:21:34;33.40;99.90
18434;DHT22;9344;52.294;13.626;2022-08-11T14:24:19;33.40;99.90
18434;DHT22;9344;52.294;13.626;2022-08-11T14:26:48;33.60;99.90
18434;DHT22;9344;52.294;13.626;2022-08-11T14:29:18;33.70;99.90
18434;DHT22;9344;52.294;13.626;2022-08-11T14:31:47;33.80;99.90
18434;DHT22;9344;52.294;13.626;2022-08-11T14:34:17;33.90;99.90
18434;DHT22;9344;52.294;13.626;2022-08-11T14:36:48;34.10;99.90
18434;DHT22;9344;52.294;13.626;2022-08-11T14:39:18;34.10;99.90
18434;DHT22;9344;52.294;13.626;2022-08-11T14:41:48;34.10;99.90
18434;DHT22;9344;52.294;13.626;2022-08-11T14:44:36;33.80;99.90
18434;DHT22;9344;52.294;13.626;2022-08-11T14:47:20;33.60;99.90
18434;DHT22;9344;52.294;13.626;2022-08-11T14:49:48;33.80;99.90
18434;DHT22;9344;52.294;13.626;2022-08-11T14:52:17;34.00;99.90
18434;DHT22;9344;52.294;13.626;2022-08-11T14:54:51;34.10;99.90
18434;DHT22;9344;52.294;13.626;2022-08-11T14:57:37;34.30;99.90
18434;DHT22;9344;52.294;13.626;2022-08-11T15:00:08;34.30;99.90
18434;DHT22;9344;52.294;13.626;2022-08-11T15:02:38;34.40;99.90
18434;DHT22;9344;52.294;13.626;2022-08-11T15:05:23;34.30;99.90
18434;DHT22;9344;52.294;13.626;2022-08-11T15:07:51;34.40;99.90
18434;DHT22;9344;52.294;13.626;2022-08-11T15:10:19;34.40;99.90
18434;DHT22;9344;52.294;13.626;2022-08-11T15:12:47;33.90;99.90
18434;DHT22;9344;52.294;13.626;2022-08-11T15:15:16;34.00;99.90
18434;DHT22;9344;52.294;13.626;2022-08-11T15:18:02;34.20;99.90
18434;DHT22;9344;52.294;13.626;2022-08-11T15:20:30;34.20;99.90
18434;DHT22;9344;52.294;13.626;2022-08-11T15:23:15;34.30;99.90
18434;DHT22;9344;52.294;13.626;2022-08-11T15:26:02;34.30;99.90
18434;DHT22;9344;52.294;13.626;2022-08-11T15:28:33;34.40;99.90
18434;DHT22;9344;52.294;13.626;2022-08-11T15:31:21;34.50;99.90
18434;DHT22;9344;52.294;13.626;2022-08-11T15:34:10;34.60;99.90
18434;DHT22;9344;52.294;13.626;2022-08-11T15:36:58;34.60;99.90
18434;DHT22;9344;52.294;13.626;2022-08-11T15:39:46;34.70;99.90
18434;DHT22;9344;52.294;13.626;2022-08-11T15:42:29;34.70;99.90
18434;DHT22;9344;52.294;13.626;2022-08-11T15:45:16;34.70;99.90
18434;DHT22;9344;52.294;13.626;2022-08-11T15:48:08;34.80;99.90
18434;DHT22;9344;52.294;13.626;2022-08-11T15:50:39;34.90;99.90
18434;DHT22;9344;52.294;13.626;2022-08-11T15:53:08;34.80;99.90
18434;DHT22;9344;52.294;13.626;2022-08-11T15:55:37;34.80;99.90
18434;DHT22;9344;52.294;13.626;2022-08-11T15:58:07;34.70;99.90
18434;DHT22;9344;52.294;13.626;2022-08-11T16:00:52;34.80;99.90
18434;DHT22;9344;52.294;13.626;2022-08-11T16:03:42;34.80;99.90
18434;DHT22;9344;52.294;13.626;2022-08-11T16:06:28;34.70;99.90
18434;DHT22;9344;52.294;13.626;2022-08-11T16:08:56;34.70;99.90
18434;DHT22;9344;52.294;13.626;2022-08-11T16:11:24;34.80;99.90
18434;DHT22;9344;52.294;13.626;2022-08-11T16:13:52;34.60;99.90
18434;DHT22;9344;52.294;13.626;2022-08-11T16:16:37;34.30;99.90
18434;DHT22;9344;52.294;13.626;2022-08-11T16:19:06;34.30;99.90
18434;DHT22;9344;52.294;13.626;2022-08-11T16:21:35;34.20;99.90
18434;DHT22;9344;52.294;13.626;2022-08-11T16:24:06;33.80;99.90
18434;DHT22;9344;52.294;13.626;2022-08-11T16:26:36;33.80;99.90
18434;DHT22;9344;52.294;13.626;2022-08-11T16:29:05;33.70;99.90
18434;DHT22;9344;52.294;13.626;2022-08-11T16:31:34;33.70;99.90
18434;DHT22;9344;52.294;13.626;2022-08-11T16:34:02;33.40;99.90
18434;DHT22;9344;52.294;13.626;2022-08-11T16:36:33;33.40;99.90
18434;DHT22;9344;52.294;13.626;2022-08-11T16:39:17;33.30;99.90
18434;DHT22;9344;52.294;13.626;2022-08-11T16:41:45;33.20;99.90
18434;DHT22;9344;52.294;13.626;2022-08-11T16:44:30;33.30;99.90
18434;DHT22;9344;52.294;13.626;2022-08-11T16:47:17;33.10;99.90
18434;DHT22;9344;52.294;13.626;2022-08-11T16:49:47;32.90;99.90
18434;DHT22;9344;52.294;13.626;2022-08-11T16:52:17;32.90;99.90
18434;DHT22;9344;52.294;13.626;2022-08-11T16:54:44;32.80;99.90
18434;DHT22;9344;52.294;13.626;2022-08-11T16:57:14;32.70;99.90
18434;DHT22;9344;52.294;13.626;2022-08-11T17:00:03;32.70;99.90
18434;DHT22;9344;52.294;13.626;2022-08-11T17:02:32;32.70;99.90
18434;DHT22;9344;52.294;13.626;2022-08-11T17:05:21;32.50;99.90
18434;DHT22;9344;52.294;13.626;2022-08-11T17:08:08;32.30;99.90
18434;DHT22;9344;52.294;13.626;2022-08-11T17:10:56;32.00;99.90
18434;DHT22;9344;52.294;13.626;2022-08-11T17:13:45;31.90;99.90
18434;DHT22;9344;52.294;13.626;2022-08-11T17:16:15;31.80;99.90
18434;DHT22;9344;52.294;13.626;2022-08-11T17:18:49;31.60;99.90
18434;DHT22;9344;52.294;13.626;2022-08-11T17:21:19;31.50;99.90
18434;DHT22;9344;52.294;13.626;2022-08-11T17:23:52;31.40;99.90
18434;DHT22;9344;52.294;13.626;2022-08-11T17:26:22;31.20;99.90